sensor_id;sensor_type;location;lat;lon;timestamp;P1;durP1;ratioP1;P2;durP2;ratioP2
81672;SDS011;71092;41.158;-8.680;2023-07-09T00:01:54;28.20;;;7.90;;
81672;SDS011;71092;41.158;-8.680;2023-07-09T00:04:20;24.90;;;8.05;;
81672;SDS011;71092;41.158;-8.680;2023-07-09T00:06:46;28.23;;;7.65;;
81672;SDS011;71092;41.158;-8.680;2023-07-09T00:09:15;30.40;;;8.07;;
81672;SDS011;71092;41.158;-8.680;2023-07-09T00:11:42;36.13;;;7.82;;
81672;SDS011;71092;41.158;-8.680;2023-07-09T00:14:12;28.95;;;7.90;;
81672;SDS011;71092;41.158;-8.680;2023-07-09T00:16:39;32.03;;;8.32;;
81672;SDS011;71092;41.158;-8.680;2023-07-09T00:19:13;26.73;;;7.45;;
81672;SDS011;71092;41.158;-8.680;2023-07-09T00:21:41;26.77;;;6.72;;
81672;SDS011;71092;41.158;-8.680;2023-07-09T00:24:10;24.33;;;8.10;;
81672;SDS011;71092;41.158;-8.680;2023-07-09T00:26:38;27.35;;;7.07;;
81672;SDS011;71092;41.158;-8.680;2023-07-09T00:29:09;20.80;;;7.03;;
81672;SDS011;71092;41.158;-8.680;2023-07-09T00:31:36;23.85;;;9.00;;
81672;SDS011;71092;41.158;-8.680;2023-07-09T00:36:34;26.92;;;8.00;;
81672;SDS011;71092;41.158;-8.680;2023-07-09T00:39:00;23.25;;;7.20;;
81672;SDS011;71092;41.158;-8.680;2023-07-09T00:41:34;22.27;;;6.93;;
81672;SDS011;71092;41.158;-8.680;2023-07-09T00:44:20;20.60;;;6.80;;
81672;SDS011;71092;41.158;-8.680;2023-07-09T00:49:34;25.10;;;6.75;;
81672;SDS011;71092;41.158;-8.680;2023-07-09T00:52:50;17.70;;;6.30;;
81672;SDS011;71092;41.158;-8.680;2023-07-09T00:55:22;25.50;;;7.50;;
81672;SDS011;71092;41.158;-8.680;2023-07-09T00:57:51;28.58;;;6.88;;
81672;SDS011;71092;41.158;-8.680;2023-07-09T01:00:23;27.85;;;8.15;;
81672;SDS011;71092;41.158;-8.680;2023-07-09T01:02:53;19.00;;;6.47;;
81672;SDS011;71092;41.158;-8.680;2023-07-09T01:05:19;19.73;;;6.18;;
81672;SDS011;71092;41.158;-8.680;2023-07-09T01:07:45;21.83;;;7.97;;
81672;SDS011;71092;41.158;-8.680;2023-07-09T01:10:13;26.48;;;7.38;;
81672;SDS011;71092;41.158;-8.680;2023-07-09T01:12:43;21.85;;;7.78;;
81672;SDS011;71092;41.158;-8.680;2023-07-09T01:15:10;19.23;;;6.20;;
81672;SDS011;71092;41.158;-8.680;2023-07-09T01:17:36;21.98;;;6.15;;
81672;SDS011;71092;41.158;-8.680;2023-07-09T01:20:02;25.10;;;6.78;;
81672;SDS011;71092;41.158;-8.680;2023-07-09T01:22:28;20.73;;;7.25;;
81672;SDS011;71092;41.158;-8.680;2023-07-09T01:27:33;26.92;;;7.63;;
81672;SDS011;71092;41.158;-8.680;2023-07-09T01:30:08;25.85;;;6.93;;
81672;SDS011;71092;41.158;-8.680;2023-07-09T01:32:37;24.27;;;6.65;;
81672;SDS011;71092;41.158;-8.680;2023-07-09T01:35:04;22.05;;;6.28;;
81672;SDS011;71092;41.158;-8.680;2023-07-09T01:37:33;17.08;;;6.30;;
81672;SDS011;71092;41.158;-8.680;2023-07-09T01:40:01;20.30;;;5.22;;
81672;SDS011;71092;41.158;-8.680;2023-07-09T01:42:31;21.50;;;7.05;;
81672;SDS011;71092;41.158;-8.680;2023-07-09T01:44:57;19.00;;;6.40;;
81672;SDS011;71092;41.158;-8.680;2023-07-09T01:47:23;16.77;;;6.10;;
81672;SDS011;71092;41.158;-8.680;2023-07-09T01:49:52;26.83;;;6.70;;
81672;SDS011;71092;41.158;-8.680;2023-07-09T01:52:23;25.08;;;7.45;;
81672;SDS011;71092;41.158;-8.680;2023-07-09T01:54:53;19.63;;;6.57;;
81672;SDS011;71092;41.158;-8.680;2023-07-09T01:57:22;23.02;;;7.50;;
81672;SDS011;71092;41.158;-8.680;2023-07-09T01:59:50;20.63;;;6.80;;
81672;SDS011;71092;41.158;-8.680;2023-07-09T02:02:16;20.33;;;6.22;;
81672;SDS011;71092;41.158;-8.680;2023-07-09T02:04:46;20.92;;;6.90;;
81672;SDS011;71092;41.158;-8.680;2023-07-09T02:07:16;20.40;;;6.05;;
81672;SDS011;71092;41.158;-8.680;2023-07-09T02:09:42;17.40;;;7.70;;
81672;SDS011;71092;41.158;-8.680;2023-07-09T02:12:10;19.70;;;5.80;;
81672;SDS011;71092;41.158;-8.680;2023-07-09T02:14:38;19.23;;;6.28;;
81672;SDS011;71092;41.158;-8.680;2023-07-09T02:17:04;19.38;;;7.07;;
81672;SDS011;71092;41.158;-8.680;2023-07-09T02:19:31;18.83;;;5.72;;
81672;SDS011;71092;41.158;-8.680;2023-07-09T02:21:57;19.40;;;7.07;;
81672;SDS011;71092;41.158;-8.680;2023-07-09T02:24:23;16.05;;;6.63;;
81672;SDS011;71092;41.158;-8.680;2023-07-09T02:26:51;19.08;;;5.90;;
81672;SDS011;71092;41.158;-8.680;2023-07-09T02:29:17;20.90;;;6.35;;
81672;SDS011;71092;41.158;-8.680;2023-07-09T02:31:44;20.20;;;6.82;;
81672;SDS011;71092;41.158;-8.680;2023-07-09T02:34:10;23.85;;;7.38;;
81672;SDS011;71092;41.158;-8.680;2023-07-09T02:36:36;20.13;;;6.95;;
81672;SDS011;71092;41.158;-8.680;2023-07-09T02:39:02;20.27;;;6.00;;
81672;SDS011;71092;41.158;-8.680;2023-07-09T02:41:28;25.60;;;7.13;;
81672;SDS011;71092;41.158;-8.680;2023-07-09T02:43:54;26.40;;;8.48;;
81672;SDS011;71092;41.158;-8.680;2023-07-09T02:46:20;25.23;;;6.85;;
81672;SDS011;71092;41.158;-8.680;2023-07-09T02:48:45;17.00;;;6.57;;
81672;SDS011;71092;41.158;-8.680;2023-07-09T02:51:11;19.35;;;6.82;;
81672;SDS011;71092;41.158;-8.680;2023-07-09T02:53:37;19.10;;;6.63;;
81672;SDS011;71092;41.158;-8.680;2023-07-09T02:56:03;19.58;;;6.00;;
81672;SDS011;71092;41.158;-8.680;2023-07-09T02:58:30;21.60;;;6.60;;
81672;SDS011;71092;41.158;-8.680;2023-07-09T03:00:56;23.85;;;7.07;;
81672;SDS011;71092;41.158;-8.680;2023-07-09T03:03:22;23.40;;;6.93;;
81672;SDS011;71092;41.158;-8.680;2023-07-09T03:05:48;16.48;;;5.90;;
81672;SDS011;71092;41.158;-8.680;2023-07-09T03:08:14;18.73;;;5.78;;
81672;SDS011;71092;41.158;-8.680;2023-07-09T03:10:41;22.23;;;6.00;;
81672;SDS011;71092;41.158;-8.680;2023-07-09T03:13:06;20.08;;;6.88;;
81672;SDS011;71092;41.158;-8.680;2023-07-09T03:15:32;18.48;;;6.75;;
81672;SDS011;71092;41.158;-8.680;2023-07-09T03:17:58;24.38;;;7.07;;
81672;SDS011;71092;41.158;-8.680;2023-07-09T03:20:24;23.30;;;6.68;;
81672;SDS011;71092;41.158;-8.680;2023-07-09T03:22:50;26.50;;;7.25;;
81672;SDS011;71092;41.158;-8.680;2023-07-09T03:25:16;20.80;;;6.47;;
81672;SDS011;71092;41.158;-8.680;2023-07-09T03:27:42;19.38;;;6.07;;
81672;SDS011;71092;41.158;-8.680;2023-07-09T03:30:08;17.50;;;6.18;;
81672;SDS011;71092;41.158;-8.680;2023-07-09T03:32:34;20.88;;;7.13;;
81672;SDS011;71092;41.158;-8.680;2023-07-09T03:35:00;18.08;;;6.28;;
81672;SDS011;71092;41.158;-8.680;2023-07-09T03:37:26;18.58;;;6.85;;
81672;SDS011;71092;41.158;-8.680;2023-07-09T03:39:52;22.60;;;6.47;;
81672;SDS011;71092;41.158;-8.680;2023-07-09T03:42:17;18.73;;;5.75;;
81672;SDS011;71092;41.158;-8.680;2023-07-09T03:44:43;16.20;;;5.38;;
81672;SDS011;71092;41.158;-8.680;2023-07-09T03:47:09;21.77;;;6.88;;
81672;SDS011;71092;41.158;-8.680;2023-07-09T03:49:35;18.48;;;6.07;;
81672;SDS011;71092;41.158;-8.680;2023-07-09T03:52:01;26.45;;;6.57;;
81672;SDS011;71092;41.158;-8.680;2023-07-09T03:54:27;19.25;;;6.63;;
81672;SDS011;71092;41.158;-8.680;2023-07-09T03:56:53;22.08;;;6.28;;
81672;SDS011;71092;41.158;-8.680;2023-07-09T03:59:19;20.80;;;6.32;;
81672;SDS011;71092;41.158;-8.680;2023-07-09T04:01:45;19.48;;;6.25;;
81672;SDS011;71092;41.158;-8.680;2023-07-09T04:04:14;15.85;;;5.93;;
81672;SDS011;71092;41.158;-8.680;2023-07-09T04:06:40;18.33;;;6.38;;
81672;SDS011;71092;41.158;-8.680;2023-07-09T04:09:06;17.05;;;5.25;;
81672;SDS011;71092;41.158;-8.680;2023-07-09T04:11:32;18.13;;;5.40;;
81672;SDS011;71092;41.158;-8.680;2023-07-09T04:13:58;19.38;;;6.18;;
81672;SDS011;71092;41.158;-8.680;2023-07-09T04:16:24;16.75;;;6.40;;
81672;SDS011;71092;41.158;-8.680;2023-07-09T04:18:50;15.45;;;5.88;;
81672;SDS011;71092;41.158;-8.680;2023-07-09T04:21:15;15.45;;;6.25;;
81672;SDS011;71092;41.158;-8.680;2023-07-09T04:23:41;20.60;;;5.57;;
81672;SDS011;71092;41.158;-8.680;2023-07-09T04:26:08;15.48;;;5.70;;
81672;SDS011;71092;41.158;-8.680;2023-07-09T04:28:39;12.07;;;6.10;;
81672;SDS011;71092;41.158;-8.680;2023-07-09T04:31:05;15.73;;;5.45;;
81672;SDS011;71092;41.158;-8.680;2023-07-09T04:33:30;17.42;;;6.28;;
81672;SDS011;71092;41.158;-8.680;2023-07-09T04:35:57;14.52;;;5.05;;
81672;SDS011;71092;41.158;-8.680;2023-07-09T04:38:22;20.67;;;5.90;;
81672;SDS011;71092;41.158;-8.680;2023-07-09T04:40:48;17.23;;;5.72;;
81672;SDS011;71092;41.158;-8.680;2023-07-09T04:43:14;17.73;;;6.30;;
81672;SDS011;71092;41.158;-8.680;2023-07-09T04:45:40;14.05;;;4.80;;
81672;SDS011;71092;41.158;-8.680;2023-07-09T04:48:06;15.00;;;6.00;;
81672;SDS011;71092;41.158;-8.680;2023-07-09T04:50:32;16.63;;;6.15;;
81672;SDS011;71092;41.158;-8.680;2023-07-09T04:52:59;11.68;;;5.55;;
81672;SDS011;71092;41.158;-8.680;2023-07-09T04:55:25;17.35;;;5.65;;
81672;SDS011;71092;41.158;-8.680;2023-07-09T04:57:52;15.20;;;5.75;;
81672;SDS011;71092;41.158;-8.680;2023-07-09T05:00:18;16.50;;;5.68;;
81672;SDS011;71092;41.158;-8.680;2023-07-09T05:02:44;15.95;;;5.32;;
81672;SDS011;71092;41.158;-8.680;2023-07-09T05:05:10;15.68;;;6.03;;
81672;SDS011;71092;41.158;-8.680;2023-07-09T05:07:37;17.80;;;5.85;;
81672;SDS011;71092;41.158;-8.680;2023-07-09T05:10:04;14.98;;;4.75;;
81672;SDS011;71092;41.158;-8.680;2023-07-09T05:12:31;14.38;;;4.93;;
81672;SDS011;71092;41.158;-8.680;2023-07-09T05:14:57;15.73;;;5.85;;
81672;SDS011;71092;41.158;-8.680;2023-07-09T05:17:23;14.55;;;5.15;;
81672;SDS011;71092;41.158;-8.680;2023-07-09T05:19:50;15.20;;;5.30;;
81672;SDS011;71092;41.158;-8.680;2023-07-09T05:22:16;16.30;;;5.45;;
81672;SDS011;71092;41.158;-8.680;2023-07-09T05:24:42;15.38;;;6.45;;
81672;SDS011;71092;41.158;-8.680;2023-07-09T05:27:08;13.45;;;5.63;;
81672;SDS011;71092;41.158;-8.680;2023-07-09T05:29:34;13.60;;;5.22;;
81672;SDS011;71092;41.158;-8.680;2023-07-09T05:32:00;13.38;;;5.68;;
81672;SDS011;71092;41.158;-8.680;2023-07-09T05:34:25;14.88;;;6.65;;
81672;SDS011;71092;41.158;-8.680;2023-07-09T05:36:51;16.15;;;6.05;;
81672;SDS011;71092;41.158;-8.680;2023-07-09T05:39:17;12.95;;;5.70;;
81672;SDS011;71092;41.158;-8.680;2023-07-09T05:41:43;11.45;;;6.00;;
81672;SDS011;71092;41.158;-8.680;2023-07-09T05:44:09;14.52;;;5.25;;
81672;SDS011;71092;41.158;-8.680;2023-07-09T05:46:35;15.60;;;5.60;;
81672;SDS011;71092;41.158;-8.680;2023-07-09T05:49:02;13.35;;;5.22;;
81672;SDS011;71092;41.158;-8.680;2023-07-09T05:51:29;12.77;;;4.80;;
81672;SDS011;71092;41.158;-8.680;2023-07-09T05:53:55;9.43;;;4.78;;
81672;SDS011;71092;41.158;-8.680;2023-07-09T05:56:21;13.80;;;5.05;;
81672;SDS011;71092;41.158;-8.680;2023-07-09T05:58:47;11.60;;;5.05;;
81672;SDS011;71092;41.158;-8.680;2023-07-09T06:01:14;12.38;;;5.25;;
81672;SDS011;71092;41.158;-8.680;2023-07-09T06:03:39;12.73;;;4.93;;
81672;SDS011;71092;41.158;-8.680;2023-07-09T06:06:05;12.45;;;5.22;;
81672;SDS011;71092;41.158;-8.680;2023-07-09T06:08:31;13.20;;;5.55;;
81672;SDS011;71092;41.158;-8.680;2023-07-09T06:10:59;14.75;;;5.25;;
81672;SDS011;71092;41.158;-8.680;2023-07-09T06:13:26;12.38;;;5.35;;
81672;SDS011;71092;41.158;-8.680;2023-07-09T06:15:53;17.05;;;5.15;;
81672;SDS011;71092;41.158;-8.680;2023-07-09T06:18:20;17.92;;;5.95;;
81672;SDS011;71092;41.158;-8.680;2023-07-09T06:20:53;17.40;;;5.57;;
81672;SDS011;71092;41.158;-8.680;2023-07-09T06:23:20;14.32;;;5.40;;
81672;SDS011;71092;41.158;-8.680;2023-07-09T06:25:46;13.93;;;5.22;;
81672;SDS011;71092;41.158;-8.680;2023-07-09T06:28:21;13.38;;;4.70;;
81672;SDS011;71092;41.158;-8.680;2023-07-09T06:30:48;14.90;;;5.13;;
81672;SDS011;71092;41.158;-8.680;2023-07-09T06:33:15;15.18;;;4.70;;
81672;SDS011;71092;41.158;-8.680;2023-07-09T06:36:00;15.55;;;4.10;;
81672;SDS011;71092;41.158;-8.680;2023-07-09T06:38:27;12.98;;;4.20;;
81672;SDS011;71092;41.158;-8.680;2023-07-09T06:40:53;19.08;;;5.05;;
81672;SDS011;71092;41.158;-8.680;2023-07-09T06:43:20;15.98;;;4.45;;
81672;SDS011;71092;41.158;-8.680;2023-07-09T06:45:50;15.60;;;4.78;;
81672;SDS011;71092;41.158;-8.680;2023-07-09T06:48:17;12.60;;;3.67;;
81672;SDS011;71092;41.158;-8.680;2023-07-09T06:50:43;15.40;;;4.45;;
81672;SDS011;71092;41.158;-8.680;2023-07-09T06:53:08;13.48;;;4.55;;
81672;SDS011;71092;41.158;-8.680;2023-07-09T06:55:35;15.70;;;4.63;;
81672;SDS011;71092;41.158;-8.680;2023-07-09T06:58:00;17.00;;;4.45;;
81672;SDS011;71092;41.158;-8.680;2023-07-09T07:00:26;12.65;;;4.10;;
81672;SDS011;71092;41.158;-8.680;2023-07-09T07:02:52;11.32;;;3.33;;
81672;SDS011;71092;41.158;-8.680;2023-07-09T07:05:18;15.85;;;4.80;;
81672;SDS011;71092;41.158;-8.680;2023-07-09T07:07:44;12.88;;;3.80;;
81672;SDS011;71092;41.158;-8.680;2023-07-09T07:10:10;16.27;;;5.10;;
81672;SDS011;71092;41.158;-8.680;2023-07-09T07:12:43;15.48;;;4.82;;
81672;SDS011;71092;41.158;-8.680;2023-07-09T07:15:11;15.27;;;4.68;;
81672;SDS011;71092;41.158;-8.680;2023-07-09T07:17:38;20.17;;;5.38;;
81672;SDS011;71092;41.158;-8.680;2023-07-09T07:20:05;15.32;;;4.30;;
81672;SDS011;71092;41.158;-8.680;2023-07-09T07:22:31;15.30;;;4.57;;
81672;SDS011;71092;41.158;-8.680;2023-07-09T07:24:57;15.65;;;4.55;;
81672;SDS011;71092;41.158;-8.680;2023-07-09T07:27:23;12.80;;;4.28;;
81672;SDS011;71092;41.158;-8.680;2023-07-09T07:29:49;13.85;;;5.00;;
81672;SDS011;71092;41.158;-8.680;2023-07-09T07:32:15;17.48;;;4.32;;
81672;SDS011;71092;41.158;-8.680;2023-07-09T07:34:41;11.73;;;5.43;;
81672;SDS011;71092;41.158;-8.680;2023-07-09T07:37:06;12.63;;;4.68;;
81672;SDS011;71092;41.158;-8.680;2023-07-09T07:39:32;12.80;;;4.88;;
81672;SDS011;71092;41.158;-8.680;2023-07-09T07:41:58;12.15;;;3.83;;
81672;SDS011;71092;41.158;-8.680;2023-07-09T07:44:24;13.38;;;4.70;;
81672;SDS011;71092;41.158;-8.680;2023-07-09T07:46:50;19.63;;;5.05;;
81672;SDS011;71092;41.158;-8.680;2023-07-09T07:49:15;12.18;;;5.45;;
81672;SDS011;71092;41.158;-8.680;2023-07-09T07:51:41;16.73;;;4.38;;
81672;SDS011;71092;41.158;-8.680;2023-07-09T07:54:07;17.50;;;5.05;;
81672;SDS011;71092;41.158;-8.680;2023-07-09T07:56:36;19.92;;;7.40;;
81672;SDS011;71092;41.158;-8.680;2023-07-09T07:59:02;17.52;;;7.13;;
81672;SDS011;71092;41.158;-8.680;2023-07-09T08:01:28;17.75;;;5.47;;
81672;SDS011;71092;41.158;-8.680;2023-07-09T08:03:54;10.73;;;4.68;;
81672;SDS011;71092;41.158;-8.680;2023-07-09T08:06:20;13.77;;;5.05;;
81672;SDS011;71092;41.158;-8.680;2023-07-09T08:08:47;14.40;;;4.45;;
81672;SDS011;71092;41.158;-8.680;2023-07-09T08:11:13;13.82;;;4.40;;
81672;SDS011;71092;41.158;-8.680;2023-07-09T08:13:39;14.40;;;4.18;;
81672;SDS011;71092;41.158;-8.680;2023-07-09T08:16:06;13.75;;;4.80;;
81672;SDS011;71092;41.158;-8.680;2023-07-09T08:18:32;14.15;;;4.88;;
81672;SDS011;71092;41.158;-8.680;2023-07-09T08:20:58;10.75;;;3.65;;
81672;SDS011;71092;41.158;-8.680;2023-07-09T08:23:25;14.80;;;4.38;;
81672;SDS011;71092;41.158;-8.680;2023-07-09T08:25:54;12.45;;;4.07;;
81672;SDS011;71092;41.158;-8.680;2023-07-09T08:28:23;13.07;;;4.03;;
81672;SDS011;71092;41.158;-8.680;2023-07-09T08:30:51;15.68;;;4.45;;
81672;SDS011;71092;41.158;-8.680;2023-07-09T08:33:18;8.77;;;3.00;;
81672;SDS011;71092;41.158;-8.680;2023-07-09T08:35:44;18.05;;;4.60;;
81672;SDS011;71092;41.158;-8.680;2023-07-09T08:38:10;11.13;;;2.90;;
81672;SDS011;71092;41.158;-8.680;2023-07-09T08:40:40;16.00;;;3.20;;
81672;SDS011;71092;41.158;-8.680;2023-07-09T08:43:10;14.35;;;3.33;;
81672;SDS011;71092;41.158;-8.680;2023-07-09T08:48:30;13.70;;;3.08;;
81672;SDS011;71092;41.158;-8.680;2023-07-09T08:51:04;16.27;;;3.38;;
81672;SDS011;71092;41.158;-8.680;2023-07-09T08:53:43;9.75;;;2.38;;
81672;SDS011;71092;41.158;-8.680;2023-07-09T08:56:14;13.50;;;3.60;;
81672;SDS011;71092;41.158;-8.680;2023-07-09T08:58:41;18.08;;;3.00;;
81672;SDS011;71092;41.158;-8.680;2023-07-09T09:01:17;11.13;;;3.22;;
81672;SDS011;71092;41.158;-8.680;2023-07-09T09:03:47;16.85;;;4.30;;
81672;SDS011;71092;41.158;-8.680;2023-07-09T09:06:33;12.95;;;3.25;;
81672;SDS011;71092;41.158;-8.680;2023-07-09T09:09:03;12.98;;;2.60;;
81672;SDS011;71092;41.158;-8.680;2023-07-09T09:14:26;12.60;;;4.18;;
81672;SDS011;71092;41.158;-8.680;2023-07-09T09:16:56;14.68;;;4.38;;
81672;SDS011;71092;41.158;-8.680;2023-07-09T09:21:53;33.72;;;6.25;;
81672;SDS011;71092;41.158;-8.680;2023-07-09T09:24:27;43.80;;;8.18;;
81672;SDS011;71092;41.158;-8.680;2023-07-09T09:26:57;20.67;;;5.13;;
81672;SDS011;71092;41.158;-8.680;2023-07-09T09:29:24;15.68;;;5.35;;
81672;SDS011;71092;41.158;-8.680;2023-07-09T09:31:52;28.50;;;4.85;;
81672;SDS011;71092;41.158;-8.680;2023-07-09T09:34:24;17.85;;;4.30;;
81672;SDS011;71092;41.158;-8.680;2023-07-09T09:36:52;19.92;;;4.75;;
81672;SDS011;71092;41.158;-8.680;2023-07-09T09:39:19;16.00;;;4.72;;
81672;SDS011;71092;41.158;-8.680;2023-07-09T09:41:46;13.13;;;4.38;;
81672;SDS011;71092;41.158;-8.680;2023-07-09T09:44:19;16.50;;;4.68;;
81672;SDS011;71092;41.158;-8.680;2023-07-09T09:46:49;18.95;;;4.78;;
81672;SDS011;71092;41.158;-8.680;2023-07-09T09:49:19;20.92;;;4.97;;
81672;SDS011;71092;41.158;-8.680;2023-07-09T09:51:45;19.50;;;5.18;;
81672;SDS011;71092;41.158;-8.680;2023-07-09T09:54:24;22.00;;;4.97;;
81672;SDS011;71092;41.158;-8.680;2023-07-09T09:56:52;20.35;;;4.97;;
81672;SDS011;71092;41.158;-8.680;2023-07-09T09:59:20;19.55;;;5.70;;
81672;SDS011;71092;41.158;-8.680;2023-07-09T10:01:57;16.90;;;4.95;;
81672;SDS011;71092;41.158;-8.680;2023-07-09T10:04:28;18.73;;;5.20;;
81672;SDS011;71092;41.158;-8.680;2023-07-09T10:06:59;16.20;;;4.85;;
81672;SDS011;71092;41.158;-8.680;2023-07-09T10:12:13;12.30;;;4.63;;
81672;SDS011;71092;41.158;-8.680;2023-07-09T10:23:56;14.65;;;4.68;;
81672;SDS011;71092;41.158;-8.680;2023-07-09T10:35:17;15.32;;;5.47;;
81672;SDS011;71092;41.158;-8.680;2023-07-09T10:40:52;13.32;;;5.35;;
81672;SDS011;71092;41.158;-8.680;2023-07-09T10:43:25;13.75;;;5.82;;
81672;SDS011;71092;41.158;-8.680;2023-07-09T10:46:05;16.05;;;4.80;;
81672;SDS011;71092;41.158;-8.680;2023-07-09T10:48:46;16.67;;;5.55;;
81672;SDS011;71092;41.158;-8.680;2023-07-09T10:51:20;12.88;;;5.05;;
81672;SDS011;71092;41.158;-8.680;2023-07-09T10:56:59;10.95;;;5.28;;
81672;SDS011;71092;41.158;-8.680;2023-07-09T10:59:30;15.27;;;5.15;;
81672;SDS011;71092;41.158;-8.680;2023-07-09T11:02:01;16.02;;;5.32;;
81672;SDS011;71092;41.158;-8.680;2023-07-09T11:04:44;12.27;;;4.85;;
81672;SDS011;71092;41.158;-8.680;2023-07-09T11:07:14;12.68;;;5.10;;
81672;SDS011;71092;41.158;-8.680;2023-07-09T11:09:43;14.23;;;5.60;;
81672;SDS011;71092;41.158;-8.680;2023-07-09T11:15:10;12.88;;;5.45;;
81672;SDS011;71092;41.158;-8.680;2023-07-09T11:17:40;18.05;;;5.43;;
81672;SDS011;71092;41.158;-8.680;2023-07-09T11:20:43;10.95;;;5.20;;
81672;SDS011;71092;41.158;-8.680;2023-07-09T11:23:15;15.77;;;6.03;;
81672;SDS011;71092;41.158;-8.680;2023-07-09T11:25:44;13.90;;;5.40;;
81672;SDS011;71092;41.158;-8.680;2023-07-09T11:28:14;12.07;;;4.72;;
81672;SDS011;71092;41.158;-8.680;2023-07-09T11:30:50;10.02;;;5.00;;
81672;SDS011;71092;41.158;-8.680;2023-07-09T11:33:25;13.23;;;5.63;;
81672;SDS011;71092;41.158;-8.680;2023-07-09T11:38:44;10.55;;;5.07;;
81672;SDS011;71092;41.158;-8.680;2023-07-09T11:41:22;12.25;;;4.95;;
81672;SDS011;71092;41.158;-8.680;2023-07-09T11:44:03;12.35;;;5.63;;
81672;SDS011;71092;41.158;-8.680;2023-07-09T11:46:31;12.35;;;4.90;;
81672;SDS011;71092;41.158;-8.680;2023-07-09T11:48:58;14.43;;;5.25;;
81672;SDS011;71092;41.158;-8.680;2023-07-09T11:51:31;16.63;;;5.22;;
81672;SDS011;71092;41.158;-8.680;2023-07-09T11:54:21;13.35;;;5.70;;
81672;SDS011;71092;41.158;-8.680;2023-07-09T11:56:54;14.98;;;5.88;;
81672;SDS011;71092;41.158;-8.680;2023-07-09T11:59:21;13.45;;;4.88;;
81672;SDS011;71092;41.158;-8.680;2023-07-09T12:01:47;12.35;;;5.80;;
81672;SDS011;71092;41.158;-8.680;2023-07-09T12:04:18;14.57;;;5.45;;
81672;SDS011;71092;41.158;-8.680;2023-07-09T12:06:46;15.35;;;5.68;;
81672;SDS011;71092;41.158;-8.680;2023-07-09T12:09:19;13.68;;;5.35;;
81672;SDS011;71092;41.158;-8.680;2023-07-09T12:11:47;14.32;;;5.20;;
81672;SDS011;71092;41.158;-8.680;2023-07-09T12:14:15;11.45;;;5.07;;
81672;SDS011;71092;41.158;-8.680;2023-07-09T12:16:43;14.65;;;5.05;;
81672;SDS011;71092;41.158;-8.680;2023-07-09T12:19:14;13.98;;;5.18;;
81672;SDS011;71092;41.158;-8.680;2023-07-09T12:21:45;16.33;;;5.60;;
81672;SDS011;71092;41.158;-8.680;2023-07-09T12:24:20;15.32;;;5.93;;
81672;SDS011;71092;41.158;-8.680;2023-07-09T12:26:54;14.05;;;5.63;;
81672;SDS011;71092;41.158;-8.680;2023-07-09T12:29:24;20.73;;;5.55;;
81672;SDS011;71092;41.158;-8.680;2023-07-09T12:31:57;17.20;;;5.32;;
81672;SDS011;71092;41.158;-8.680;2023-07-09T12:34:23;16.10;;;5.80;;
81672;SDS011;71092;41.158;-8.680;2023-07-09T12:36:51;17.25;;;5.93;;
81672;SDS011;71092;41.158;-8.680;2023-07-09T12:39:24;22.77;;;5.80;;
81672;SDS011;71092;41.158;-8.680;2023-07-09T12:41:50;18.95;;;5.50;;
81672;SDS011;71092;41.158;-8.680;2023-07-09T12:44:21;19.98;;;5.70;;
81672;SDS011;71092;41.158;-8.680;2023-07-09T12:46:49;16.42;;;5.95;;
81672;SDS011;71092;41.158;-8.680;2023-07-09T12:49:23;15.98;;;6.03;;
81672;SDS011;71092;41.158;-8.680;2023-07-09T12:51:53;16.08;;;5.47;;
81672;SDS011;71092;41.158;-8.680;2023-07-09T12:54:20;15.88;;;6.05;;
81672;SDS011;71092;41.158;-8.680;2023-07-09T12:56:52;16.63;;;5.35;;
81672;SDS011;71092;41.158;-8.680;2023-07-09T13:01:47;19.60;;;5.97;;
81672;SDS011;71092;41.158;-8.680;2023-07-09T13:04:15;14.65;;;5.65;;
81672;SDS011;71092;41.158;-8.680;2023-07-09T13:06:40;10.77;;;5.40;;
81672;SDS011;71092;41.158;-8.680;2023-07-09T13:09:26;19.00;;;5.82;;
81672;SDS011;71092;41.158;-8.680;2023-07-09T13:11:54;14.98;;;4.85;;
81672;SDS011;71092;41.158;-8.680;2023-07-09T13:14:22;18.08;;;5.57;;
81672;SDS011;71092;41.158;-8.680;2023-07-09T13:16:49;14.52;;;5.18;;
81672;SDS011;71092;41.158;-8.680;2023-07-09T13:19:16;15.32;;;5.68;;
81672;SDS011;71092;41.158;-8.680;2023-07-09T13:21:43;17.35;;;5.55;;
81672;SDS011;71092;41.158;-8.680;2023-07-09T13:24:13;13.32;;;5.57;;
81672;SDS011;71092;41.158;-8.680;2023-07-09T13:26:41;14.48;;;4.75;;
81672;SDS011;71092;41.158;-8.680;2023-07-09T13:29:10;14.73;;;4.82;;
81672;SDS011;71092;41.158;-8.680;2023-07-09T13:31:38;14.85;;;5.75;;
81672;SDS011;71092;41.158;-8.680;2023-07-09T13:34:07;15.63;;;5.80;;
81672;SDS011;71092;41.158;-8.680;2023-07-09T13:36:50;9.93;;;4.82;;
81672;SDS011;71092;41.158;-8.680;2023-07-09T13:39:19;14.65;;;5.55;;
81672;SDS011;71092;41.158;-8.680;2023-07-09T13:41:46;15.05;;;6.05;;
81672;SDS011;71092;41.158;-8.680;2023-07-09T13:44:19;17.40;;;5.25;;
81672;SDS011;71092;41.158;-8.680;2023-07-09T13:46:46;18.35;;;5.40;;
81672;SDS011;71092;41.158;-8.680;2023-07-09T13:49:13;17.10;;;5.90;;
81672;SDS011;71092;41.158;-8.680;2023-07-09T13:51:43;18.83;;;5.65;;
81672;SDS011;71092;41.158;-8.680;2023-07-09T13:54:24;22.98;;;4.65;;
81672;SDS011;71092;41.158;-8.680;2023-07-09T13:57:11;14.35;;;6.25;;
81672;SDS011;71092;41.158;-8.680;2023-07-09T13:59:39;13.80;;;5.13;;
81672;SDS011;71092;41.158;-8.680;2023-07-09T14:02:14;13.10;;;5.22;;
81672;SDS011;71092;41.158;-8.680;2023-07-09T14:04:44;18.48;;;3.78;;
81672;SDS011;71092;41.158;-8.680;2023-07-09T14:10:10;15.02;;;4.93;;
81672;SDS011;71092;41.158;-8.680;2023-07-09T14:12:40;20.00;;;5.93;;
81672;SDS011;71092;41.158;-8.680;2023-07-09T14:15:19;12.57;;;4.97;;
81672;SDS011;71092;41.158;-8.680;2023-07-09T14:17:45;16.23;;;5.55;;
81672;SDS011;71092;41.158;-8.680;2023-07-09T14:20:13;16.38;;;4.80;;
81672;SDS011;71092;41.158;-8.680;2023-07-09T14:22:40;17.70;;;4.63;;
81672;SDS011;71092;41.158;-8.680;2023-07-09T14:25:09;17.02;;;3.75;;
81672;SDS011;71092;41.158;-8.680;2023-07-09T14:27:41;13.02;;;5.38;;
81672;SDS011;71092;41.158;-8.680;2023-07-09T14:30:08;15.93;;;4.95;;
81672;SDS011;71092;41.158;-8.680;2023-07-09T14:32:36;15.48;;;5.20;;
81672;SDS011;71092;41.158;-8.680;2023-07-09T14:35:10;21.20;;;5.47;;
81672;SDS011;71092;41.158;-8.680;2023-07-09T14:37:38;19.95;;;6.30;;
81672;SDS011;71092;41.158;-8.680;2023-07-09T14:40:04;37.83;;;10.15;;
81672;SDS011;71092;41.158;-8.680;2023-07-09T14:42:30;84.07;;;27.40;;
81672;SDS011;71092;41.158;-8.680;2023-07-09T14:44:56;93.80;;;28.42;;
81672;SDS011;71092;41.158;-8.680;2023-07-09T14:47:22;67.07;;;23.08;;
81672;SDS011;71092;41.158;-8.680;2023-07-09T14:49:48;53.78;;;19.17;;
81672;SDS011;71092;41.158;-8.680;2023-07-09T14:52:17;62.97;;;19.15;;
81672;SDS011;71092;41.158;-8.680;2023-07-09T14:54:44;65.80;;;19.08;;
81672;SDS011;71092;41.158;-8.680;2023-07-09T14:57:17;68.68;;;18.67;;
81672;SDS011;71092;41.158;-8.680;2023-07-09T14:59:46;50.45;;;14.93;;
81672;SDS011;71092;41.158;-8.680;2023-07-09T15:02:33;43.55;;;14.13;;
81672;SDS011;71092;41.158;-8.680;2023-07-09T15:05:04;33.35;;;10.27;;
81672;SDS011;71092;41.158;-8.680;2023-07-09T15:07:32;22.73;;;6.25;;
81672;SDS011;71092;41.158;-8.680;2023-07-09T15:10:01;25.95;;;6.65;;
81672;SDS011;71092;41.158;-8.680;2023-07-09T15:12:33;28.08;;;6.72;;
81672;SDS011;71092;41.158;-8.680;2023-07-09T15:17:38;18.60;;;5.68;;
81672;SDS011;71092;41.158;-8.680;2023-07-09T15:20:05;19.60;;;5.60;;
81672;SDS011;71092;41.158;-8.680;2023-07-09T15:22:33;16.38;;;4.60;;
81672;SDS011;71092;41.158;-8.680;2023-07-09T15:25:00;17.77;;;4.55;;
81672;SDS011;71092;41.158;-8.680;2023-07-09T15:27:25;22.08;;;4.53;;